Time;durP1;ratioP1;P1;durP2;ratioP2;P2;SDS_P1;SDS_P2;PMS_P1;PMS_P2;Temp;Humidity;BMP_temperature;BMP_pressure;BME280_temperature;BME280_humidity;BME280_pressure;Samples;Min_cycle;Max_cycle;Signal;HPM_P1;HPM_P2
2022/03/26 00:00:23;;;;;;;22.33;8.90;;;;;;;;;;20827769;28;20053;-56
2022/03/26 00:10:25;;;;;;;9.55;7.50;;;;;;;;;;20827206;28;20358;-56
2022/03/26 00:20:28;;;;;;;11.90;7.97;;;;;;;;;;20834128;28;20085;-57
2022/03/26 00:30:31;;;;;;;15.57;6.97;;;;;;;;;;20856053;28;20046;-56
2022/03/26 00:40:33;;;;;;;11.18;5.63;;;;;;;;;;20854863;28;20478;-54
2022/03/26 00:50:35;;;;;;;14.00;6.88;;;;;;;;;;20839038;28;20507;-56
2022/03/26 01:00:38;;;;;;;14.38;6.07;;;;;;;;;;20837954;28;20412;-55
2022/03/26 01:10:41;;;;;;;8.93;5.20;;;;;;;;;;20836823;28;20041;-54
2022/03/26 01:20:44;;;;;;;12.47;5.30;;;;;;;;;;20837307;28;20509;-53
2022/03/26 01:30:46;;;;;;;14.38;4.93;;;;;;;;;;20834667;28;20052;-53
2022/03/26 01:40:49;;;;;;;8.82;4.65;;;;;;;;;;20835754;28;20477;-56
2022/03/26 01:50:51;;;;;;;11.23;3.85;;;;;;;;;;20833986;28;20126;-55
2022/03/26 02:00:53;;;;;;;9.32;4.00;;;;;;;;;;20832995;28;20060;-55
2022/03/26 02:10:55;;;;;;;12.18;4.13;;;;;;;;;;20832339;28;20073;-54
2022/03/26 02:20:58;;;;;;;14.23;4.43;;;;;;;;;;20831059;28;20053;-55
2022/03/26 02:31:02;;;;;;;10.33;3.87;;;;;;;;;;20830821;28;20045;-56
2022/03/26 02:41:05;;;;;;;13.02;4.07;;;;;;;;;;20829140;28;20693;-54
2022/03/26 02:51:09;;;;;;;13.63;3.77;;;;;;;;;;20829754;28;20497;-56
2022/03/26 03:01:15;;;;;;;14.70;4.30;;;;;;;;;;20843331;28;20045;-55
2022/03/26 03:11:19;;;;;;;9.40;3.97;;;;;;;;;;20828995;28;20482;-55
2022/03/26 03:21:23;;;;;;;12.50;5.22;;;;;;;;;;20827747;28;20091;-56
2022/03/26 03:31:27;;;;;;;10.23;3.70;;;;;;;;;;20828973;28;20050;-56
2022/03/26 03:41:30;;;;;;;13.27;3.73;;;;;;;;;;20826773;28;20056;-55
2022/03/26 03:51:33;;;;;;;15.07;3.88;;;;;;;;;;20828500;28;20045;-53
2022/03/26 04:01:36;;;;;;;14.98;4.63;;;;;;;;;;20842383;28;20056;-56
2022/03/26 04:11:40;;;;;;;13.70;4.25;;;;;;;;;;20841301;28;20060;-54
2022/03/26 04:21:44;;;;;;;13.88;3.60;;;;;;;;;;20840352;28;20049;-55
2022/03/26 04:31:47;;;;;;;10.45;4.43;;;;;;;;;;20839614;28;20128;-55
2022/03/26 04:41:49;;;;;;;10.68;3.88;;;;;;;;;;20839969;28;20057;-56
2022/03/26 04:51:56;;;;;;;13.40;4.10;;;;;;;;;;20839589;28;20053;-54
2022/03/26 05:01:59;;;;;;;12.50;3.63;;;;;;;;;;20837494;28;20478;-54
2022/03/26 05:12:01;;;;;;;10.35;3.67;;;;;;;;;;20836462;28;20041;-56
2022/03/26 05:22:04;;;;;;;9.18;3.78;;;;;;;;;;20836150;28;20425;-56
2022/03/26 05:32:06;;;;;;;10.63;3.70;;;;;;;;;;20850849;28;20048;-55
2022/03/26 05:42:09;;;;;;;15.80;3.92;;;;;;;;;;20835097;28;20378;-55
2022/03/26 05:52:11;;;;;;;11.95;3.97;;;;;;;;;;20833911;28;20050;-55
2022/03/26 06:02:13;;;;;;;11.82;3.85;;;;;;;;;;20833068;28;20060;-57
2022/03/26 06:12:16;;;;;;;20.70;5.88;;;;;;;;;;20832236;28;20046;-55
2022/03/26 06:22:19;;;;;;;12.82;3.90;;;;;;;;;;20831382;28;20057;-56
2022/03/26 06:32:21;;;;;;;8.85;3.53;;;;;;;;;;20830911;28;20138;-54
2022/03/26 06:42:23;;;;;;;10.13;3.58;;;;;;;;;;20830284;28;20561;-57
2022/03/26 06:52:25;;;;;;;10.98;3.85;;;;;;;;;;20830738;28;20403;-54
2022/03/26 07:02:28;;;;;;;10.27;3.70;;;;;;;;;;20830715;28;20366;-56
2022/03/26 07:12:30;;;;;;;15.10;4.63;;;;;;;;;;20830996;28;20400;-58
2022/03/26 07:22:32;;;;;;;14.80;4.63;;;;;;;;;;20828796;28;20053;-56
2022/03/26 07:32:35;;;;;;;21.17;4.88;;;;;;;;;;20840035;28;20042;-54
2022/03/26 07:42:37;;;;;;;14.70;4.38;;;;;;;;;;20844623;28;20493;-55
2022/03/26 07:52:41;;;;;;;13.38;4.80;;;;;;;;;;20843260;28;20045;-55
2022/03/26 08:02:43;;;;;;;11.57;4.28;;;;;;;;;;20842795;28;20146;-55
2022/03/26 08:12:45;;;;;;;11.75;5.28;;;;;;;;;;20842034;28;20525;-54
2022/03/26 08:22:47;;;;;;;16.35;6.18;;;;;;;;;;20841055;28;20049;-54
2022/03/26 08:32:49;;;;;;;12.05;4.65;;;;;;;;;;20840018;28;20056;-55
2022/03/26 08:42:52;;;;;;;12.73;5.07;;;;;;;;;;20852880;28;20160;-58
2022/03/26 08:52:54;;;;;;;15.40;5.00;;;;;;;;;;20839919;28;20064;-57
2022/03/26 09:02:57;;;;;;;10.32;4.28;;;;;;;;;;20838141;28;20144;-55
2022/03/26 09:12:59;;;;;;;10.88;4.60;;;;;;;;;;20837078;28;20061;-56
2022/03/26 09:23:01;;;;;;;19.20;4.57;;;;;;;;;;20836753;28;20061;-57
2022/03/26 09:33:04;;;;;;;14.65;5.70;;;;;;;;;;20837031;28;20056;-57
2022/03/26 09:43:06;;;;;;;18.05;5.28;;;;;;;;;;20835858;28;20516;-57
2022/03/26 09:53:11;;;;;;;15.60;5.38;;;;;;;;;;20834151;28;20072;-58
2022/03/26 10:03:13;;;;;;;12.80;4.60;;;;;;;;;;20849952;28;20121;-56
2022/03/26 10:13:34;;;;;;;12.63;4.32;;;;;;;;;;20832943;28;20096;-55
2022/03/26 10:23:37;;;;;;;9.70;4.13;;;;;;;;;;20847082;28;20054;-57
2022/03/26 10:33:39;;;;;;;12.48;4.32;;;;;;;;;;20879768;28;20128;-56
2022/03/26 10:43:41;;;;;;;11.60;4.60;;;;;;;;;;20913126;28;20057;-57
2022/03/26 10:53:44;;;;;;;7.68;4.30;;;;;;;;;;20913012;28;20470;-55
2022/03/26 11:03:46;;;;;;;11.63;4.90;;;;;;;;;;20911946;28;20114;-56
2022/03/26 11:13:52;;;;;;;7.88;3.47;;;;;;;;;;20912116;28;20049;-55
2022/03/26 11:23:54;;;;;;;11.10;5.00;;;;;;;;;;20910135;28;20059;-52
2022/03/26 11:34:03;;;;;;;11.18;4.80;;;;;;;;;;20909603;28;20045;-53
2022/03/26 11:44:07;;;;;;;11.27;4.97;;;;;;;;;;20909135;28;20049;-53
2022/03/26 11:54:15;;;;;;;11.55;4.88;;;;;;;;;;20909138;28;20048;-53
2022/03/26 12:04:21;;;;;;;10.93;5.22;;;;;;;;;;20908781;28;20060;-51
2022/03/26 12:14:23;;;;;;;16.20;5.57;;;;;;;;;;20912623;28;20484;-52
2022/03/26 12:24:29;;;;;;;14.52;6.28;;;;;;;;;;20922869;28;20056;-56
2022/03/26 12:34:31;;;;;;;15.02;5.13;;;;;;;;;;20922089;28;20136;-59
2022/03/26 12:44:36;;;;;;;10.52;5.40;;;;;;;;;;20922354;28;20207;-59
2022/03/26 12:54:38;;;;;;;12.40;6.13;;;;;;;;;;20921240;28;20508;-56
2022/03/26 13:04:41;;;;;;;14.07;6.60;;;;;;;;;;20922557;28;20466;-57
2022/03/26 13:14:47;;;;;;;11.48;5.97;;;;;;;;;;20919021;28;20045;-59
2022/03/26 13:24:53;;;;;;;11.25;5.03;;;;;;;;;;20917334;28;20045;-56
2022/03/26 13:34:56;;;;;;;15.27;5.72;;;;;;;;;;20917860;28;20079;-57
2022/03/26 13:44:59;;;;;;;7.60;5.30;;;;;;;;;;20916875;28;20049;-58
2022/03/26 13:55:01;;;;;;;11.35;5.97;;;;;;;;;;20916951;28;20049;-58
2022/03/26 14:05:03;;;;;;;12.27;5.35;;;;;;;;;;20916028;28;20080;-54
2022/03/26 14:15:06;;;;;;;12.80;5.15;;;;;;;;;;20915132;28;20045;-57
2022/03/26 14:25:09;;;;;;;14.27;4.82;;;;;;;;;;20914151;28;20129;-60
2022/03/26 14:35:11;;;;;;;13.85;5.18;;;;;;;;;;20912683;28;20091;-58
2022/03/26 14:45:13;;;;;;;8.10;3.92;;;;;;;;;;20912422;28;20450;-57
2022/03/26 14:55:16;;;;;;;11.45;4.38;;;;;;;;;;20912195;28;20053;-54
2022/03/26 15:05:18;;;;;;;10.90;3.78;;;;;;;;;;20912085;28;20576;-56
2022/03/26 15:15:20;;;;;;;10.63;3.45;;;;;;;;;;20910723;28;20198;-55
2022/03/26 15:25:23;;;;;;;8.55;4.70;;;;;;;;;;20910317;28;20060;-55
2022/03/26 15:35:25;;;;;;;13.25;5.20;;;;;;;;;;20909845;28;20049;-54
2022/03/26 15:45:27;;;;;;;11.40;4.88;;;;;;;;;;20909044;28;20049;-54
2022/03/26 15:55:28;;;;;;;10.60;5.00;;;;;;;;;;20939262;28;20044;-54
2022/03/26 16:05:31;;;;;;;10.15;4.20;;;;;;;;;;20924749;28;20053;-55
2022/03/26 16:15:33;;;;;;;9.38;3.80;;;;;;;;;;20925780;28;20405;-57
2022/03/26 16:25:35;;;;;;;7.22;3.40;;;;;;;;;;20922933;28;20061;-54
2022/03/26 16:35:37;;;;;;;10.82;4.20;;;;;;;;;;20922951;28;20045;-56
2022/03/26 16:45:39;;;;;;;7.72;3.20;;;;;;;;;;20921660;28;20049;-58
2022/03/26 16:55:41;;;;;;;9.55;3.00;;;;;;;;;;20921877;28;20124;-59
2022/03/26 17:05:43;;;;;;;6.45;3.42;;;;;;;;;;20920550;28;20084;-55
2022/03/26 17:15:46;;;;;;;6.68;2.72;;;;;;;;;;20919574;28;20140;-57
2022/03/26 17:25:48;;;;;;;7.88;2.90;;;;;;;;;;20918625;28;20053;-57
2022/03/26 17:35:50;;;;;;;8.20;4.00;;;;;;;;;;20918304;28;20405;-57
2022/03/26 17:45:52;;;;;;;6.68;3.70;;;;;;;;;;20917562;28;20053;-59
2022/03/26 17:55:54;;;;;;;11.38;4.68;;;;;;;;;;20916563;28;20132;-59
2022/03/26 18:05:56;;;;;;;7.68;3.10;;;;;;;;;;20915621;28;20057;-57
2022/03/26 18:15:58;;;;;;;6.43;3.45;;;;;;;;;;20914178;28;20045;-58
2022/03/26 18:26:00;;;;;;;6.53;3.72;;;;;;;;;;20914486;28;20061;-53
2022/03/26 18:36:03;;;;;;;6.75;3.85;;;;;;;;;;20913777;28;20049;-59
2022/03/26 18:46:05;;;;;;;6.18;3.13;;;;;;;;;;20913139;28;20473;-57
2022/03/26 18:56:07;;;;;;;6.45;4.47;;;;;;;;;;20912347;28;20045;-59
2022/03/26 19:06:09;;;;;;;5.63;3.20;;;;;;;;;;20911412;28;20052;-58
2022/03/26 19:16:11;;;;;;;9.40;4.28;;;;;;;;;;20911379;28;20056;-57
2022/03/26 19:26:13;;;;;;;6.32;2.83;;;;;;;;;;20936180;28;20466;-54
2022/03/26 19:36:15;;;;;;;5.43;3.20;;;;;;;;;;20928157;28;20048;-59
2022/03/26 19:46:17;;;;;;;5.90;2.85;;;;;;;;;;20927942;28;20060;-58
2022/03/26 19:56:22;;;;;;;6.72;2.80;;;;;;;;;;20926684;28;20067;-58
2022/03/26 20:06:24;;;;;;;;;;;;;;;;;;20925075;28;20052;-58
2022/03/26 20:26:47;;;;;;;7.15;2.42;;;;;;;;;;20923907;28;20132;-56
2022/03/26 20:36:49;;;;;;;8.43;3.63;;;;;;;;;;20921697;28;20064;-54
2022/03/26 20:46:52;;;;;;;6.03;3.65;;;;;;;;;;20922539;28;20056;-55
2022/03/26 20:56:53;;;;;;;4.82;3.47;;;;;;;;;;20937311;28;20052;-54
2022/03/26 21:06:55;;;;;;;9.60;4.15;;;;;;;;;;20921858;28;20417;-56
2022/03/26 21:16:57;;;;;;;9.68;4.55;;;;;;;;;;20920631;28;20048;-56
2022/03/26 21:26:59;;;;;;;10.65;3.95;;;;;;;;;;20919351;28;20087;-58
2022/03/26 21:37:01;;;;;;;8.27;2.95;;;;;;;;;;20917607;28;20048;-56
2022/03/26 21:47:04;;;;;;;5.68;3.20;;;;;;;;;;20930161;28;20405;-56
2022/03/26 21:57:07;;;;;;;8.05;4.15;;;;;;;;;;20916749;28;20049;-56
2022/03/26 22:07:08;;;;;;;11.07;4.90;;;;;;;;;;20916731;28;20056;-54
2022/03/26 22:17:11;;;;;;;11.98;5.30;;;;;;;;;;20916361;28;20049;-55
2022/03/26 22:27:13;;;;;;;8.82;4.00;;;;;;;;;;20913326;28;20060;-54
2022/03/26 22:37:16;;;;;;;6.80;4.50;;;;;;;;;;20914290;28;20051;-55
2022/03/26 22:47:18;;;;;;;6.25;3.45;;;;;;;;;;20913032;28;20049;-55
2022/03/26 22:57:20;;;;;;;8.48;4.93;;;;;;;;;;20912067;28;20072;-54
2022/03/26 23:07:22;;;;;;;10.98;5.00;;;;;;;;;;20911732;28;20469;-58
2022/03/26 23:17:23;;;;;;;14.77;5.18;;;;;;;;;;20911559;28;20152;-58
2022/03/26 23:27:26;;;;;;;10.20;5.53;;;;;;;;;;20910897;28;20057;-59
2022/03/26 23:37:27;;;;;;;8.88;4.55;;;;;;;;;;20911793;28;20485;-58
2022/03/26 23:47:30;;;;;;;7.93;5.55;;;;;;;;;;20925380;28;20053;-58
2022/03/26 23:57:32;;;;;;;7.03;4.82;;;;;;;;;;20909962;28;20064;-57
